Skookumchuck, Canada
Current Conditions -  °F | °C
As of 2:00 PM on Sunday 23 Nov 2014 (Local Time) from CYXC Reporting Station
Overcast Overcast  
Wind Chill: 25°   Ceiling: 4500
Heat Index: 34°   Visibility: 15mi
Dew Point: 27°   Wind: 12mph
Humidity: 75%   Direction: 130°SE
Pressure: 29.88"   Gusts: NA
Location:  49.9°N, 115.77°W
Report Text: CYXC 232100Z 13010KT 15SM SCT020 OVC045 01/M03 A2988 RMK SC3SC5 CVCTV CLD EMBD SLP152
Loading
Personal Weather Stations






























Interactive Weather Map New forecast layout! Learn more

10-Day Weather Forecast

Advertisements
Track Severe Weather on mobile